Time;durP1;ratioP1;P1;durP2;ratioP2;P2;SDS_P1;SDS_P2;PMS_P1;PMS_P2;Temp;Humidity;BMP_temperature;BMP_pressure;BME280_temperature;BME280_humidity;BME280_pressure;Samples;Min_cycle;Max_cycle;Signal;HPM_P1;HPM_P2
2022/05/04 00:00:31;;;;;;;;;;;;;;;7.71;64.85;98192.06;5033899;28;20424;-60
2022/05/04 00:02:56;;;;;;;;;;;;;;;7.59;65.42;98194.00;5033506;28;19972;-59
2022/05/04 00:05:22;;;;;;;;;;;;;;;7.46;65.57;98200.47;5033540;28;19929;-59
2022/05/04 00:07:47;;;;;;;;;;;;;;;7.38;66.33;98201.72;5033763;28;19925;-59
2022/05/04 00:10:13;;;;;;;;;;;;;;;7.34;66.24;98208.50;5033471;28;19933;-60
2022/05/04 00:12:39;;;;;;;;;;;;;;;7.28;67.24;98215.53;5033716;28;19925;-60
2022/05/04 00:15:05;;;;;;;;;;;;;;;7.23;67.31;98204.13;5032433;28;20337;-60
2022/05/04 00:17:31;;;;;;;;;;;;;;;7.17;67.51;98213.03;5033482;28;20416;-61
2022/05/04 00:19:57;;;;;;;;;;;;;;;7.12;67.80;98210.31;5033312;28;19952;-62
2022/05/04 00:22:23;;;;;;;;;;;;;;;7.05;67.73;98205.22;5033434;28;20031;-60
2022/05/04 00:24:49;;;;;;;;;;;;;;;6.98;67.92;98209.88;5032125;28;19925;-61
2022/05/04 00:27:15;;;;;;;;;;;;;;;6.95;68.07;98211.16;5033361;28;20386;-59
2022/05/04 00:29:44;;;;;;;;;;;;;;;6.89;68.26;98204.22;5033318;28;20024;-61
2022/05/04 00:32:10;;;;;;;;;;;;;;;6.83;68.33;98221.00;5031849;28;19936;-60
2022/05/04 00:34:36;;;;;;;;;;;;;;;6.78;68.88;98215.66;5022771;28;19925;-59
2022/05/04 00:37:01;;;;;;;;;;;;;;;6.77;69.08;98216.69;5011779;28;19996;-61
2022/05/04 00:39:27;;;;;;;;;;;;;;;6.71;68.90;98218.47;5013099;28;19925;-60
2022/05/04 00:41:53;;;;;;;;;;;;;;;6.69;69.13;98217.09;5013345;28;19929;-59
2022/05/04 00:44:18;;;;;;;;;;;;;;;6.71;69.53;98225.56;5013340;28;20275;-60
2022/05/04 00:46:44;;;;;;;;;;;;;;;6.71;68.71;98218.47;5011778;28;19973;-61
2022/05/04 00:49:09;;;;;;;;;;;;;;;6.71;69.25;98225.56;5013234;28;20314;-60
2022/05/04 00:51:35;;;;;;;;;;;;;;;6.66;69.44;98228.13;5011617;28;20353;-60
2022/05/04 00:54:00;;;;;;;;;;;;;;;6.59;69.98;98229.06;5011749;28;19925;-60
2022/05/04 00:56:26;;;;;;;;;;;;;;;6.51;70.07;98228.69;5013010;28;19929;-60
2022/05/04 00:58:54;;;;;;;;;;;;;;;6.44;69.95;98220.94;5011611;28;19929;-60
2022/05/04 01:01:29;;;;;;;;;;;;;;;6.35;70.82;98227.59;5011885;28;19975;-62
2022/05/04 01:03:55;;;;;;;;;;;;;;;6.27;70.73;98226.19;5013007;28;19925;-61
2022/05/04 01:06:21;;;;;;;;;;;;;;;6.21;71.56;98221.09;5012877;28;19929;-61
2022/05/04 01:08:50;;;;;;;;;;;;;;;6.12;71.98;98221.47;5011438;28;19932;-61
2022/05/04 01:11:16;;;;;;;;;;;;;;;6.08;71.46;98215.06;5012608;28;21652;-59
2022/05/04 01:13:41;;;;;;;;;;;;;;;6.03;72.13;98214.16;5012639;28;19932;-61
2022/05/04 01:16:07;;;;;;;;;;;;;;;6.02;71.70;98209.94;5012504;28;19926;-61
2022/05/04 01:18:33;;;;;;;;;;;;;;;5.99;71.65;98213.84;5011479;28;20302;-60
2022/05/04 01:20:58;;;;;;;;;;;;;;;5.98;71.75;98214.09;5012677;28;19931;-61
2022/05/04 01:23:25;;;;;;;;;;;;;;;5.95;71.33;98211.94;5012669;28;20314;-59
2022/05/04 01:25:53;;;;;;;;;;;;;;;5.94;71.83;98218.22;5012051;28;20453;-60
2022/05/04 01:28:19;;;;;;;;;;;;;;;5.88;71.51;98217.28;5011193;28;19929;-59
2022/05/04 01:30:44;;;;;;;;;;;;;;;5.85;71.62;98221.22;5012368;28;19948;-61
2022/05/04 01:33:10;;;;;;;;;;;;;;;5.83;71.73;98217.22;5012743;28;19929;-61
2022/05/04 01:35:35;;;;;;;;;;;;;;;5.82;71.35;98216.41;5030246;28;19947;-61
2022/05/04 01:38:01;;;;;;;;;;;;;;;5.80;70.72;98218.47;5031840;28;19972;-60
2022/05/04 01:40:26;;;;;;;;;;;;;;;5.78;70.41;98214.50;5032201;28;19925;-59
2022/05/04 01:42:52;;;;;;;;;;;;;;;5.77;70.88;98210.28;5032164;28;19933;-59
2022/05/04 01:45:18;;;;;;;;;;;;;;;5.77;70.37;98208.44;5047377;28;19925;-62
2022/05/04 01:47:49;;;;;;;;;;;;;;;5.79;70.34;98219.50;5032168;28;19929;-59
2022/05/04 01:50:15;;;;;;;;;;;;;;;5.80;69.58;98221.13;5030942;28;19971;-61
2022/05/04 01:52:41;;;;;;;;;;;;;;;5.82;69.61;98229.53;5032059;28;20413;-60
2022/05/04 01:55:07;;;;;;;;;;;;;;;5.92;70.26;98229.75;5031730;28;20036;-62
2022/05/04 01:57:32;;;;;;;;;;;;;;;6.19;69.39;98226.56;5014024;28;20306;-61
2022/05/04 01:59:58;;;;;;;;;;;;;;;6.49;67.65;98226.25;5031996;28;20051;-61
2022/05/04 02:02:25;;;;;;;;;;;;;;;6.83;66.60;98231.53;5030595;28;19987;-61
2022/05/04 02:04:50;;;;;;;;;;;;;;;7.08;65.01;98225.81;5047142;28;20317;-61
2022/05/04 02:07:16;;;;;;;;;;;;;;;7.33;64.62;98232.47;5013922;28;19929;-61
2022/05/04 02:09:41;;;;;;;;;;;;;;;7.56;62.84;98237.53;5031659;28;19929;-59
2022/05/04 02:12:07;;;;;;;;;;;;;;;7.74;61.71;98239.03;5030541;28;19925;-61
2022/05/04 02:14:33;;;;;;;;;;;;;;;7.96;60.24;98242.44;5030649;28;19925;-61
2022/05/04 02:16:59;;;;;;;;;;;;;;;8.31;59.68;98240.41;5031632;28;19936;-61
2022/05/04 02:19:24;;;;;;;;;;;;;;;8.63;58.32;98246.50;5031528;28;20321;-61
2022/05/04 02:21:50;;;;;;;;;;;;;;;8.93;56.96;98249.63;5031644;28;19929;-61
2022/05/04 02:24:15;;;;;;;;;;;;;;;9.14;56.42;98253.19;5030335;28;19972;-62
2022/05/04 02:26:41;;;;;;;;;;;;;;;9.49;55.62;98253.38;5031294;28;19929;-61
2022/05/04 02:29:06;;;;;;;;;;;;;;;9.62;55.16;98259.25;5030186;28;19921;-61
2022/05/04 02:31:32;;;;;;;;;;;;;;;9.38;56.08;98261.53;5031632;28;20131;-61
2022/05/04 02:33:57;;;;;;;;;;;;;;;8.96;56.43;98275.56;5025291;28;19981;-61
2022/05/04 02:39:07;;;;;;;;;;;;;;;8.08;60.09;98278.44;5013518;28;20413;-60
2022/05/04 02:41:33;;;;;;;;;;;;;;;7.69;61.99;98292.53;5015138;28;20024;-60
2022/05/04 02:44:01;;;;;;;;;;;;;;;7.42;63.85;98291.66;5015562;28;19949;-62
2022/05/04 02:46:27;;;;;;;;;;;;;;;7.14;65.26;98292.56;5013942;28;19929;-61
2022/05/04 02:48:53;;;;;;;;;;;;;;;7.04;64.71;98294.03;5014308;28;19929;-60
2022/05/04 02:51:18;;;;;;;;;;;;;;;7.00;65.15;98302.63;5015313;28;20310;-61
2022/05/04 02:53:44;;;;;;;;;;;;;;;6.92;64.80;98298.59;5013935;28;20299;-60
2022/05/04 02:56:10;;;;;;;;;;;;;;;6.89;63.26;98288.53;5014997;28;19933;-61
2022/05/04 02:58:36;;;;;;;;;;;;;;;6.88;64.56;98292.19;5015191;28;19932;-61
2022/05/04 03:03:56;;;;;;;;;;;;;;;6.89;65.37;98285.88;5014945;28;19925;-61
2022/05/04 03:06:22;;;;;;;;;;;;;;;6.91;65.66;98275.09;5014841;28;20048;-60
2022/05/04 03:08:48;;;;;;;;;;;;;;;7.04;66.00;98282.69;5013747;28;19971;-61
2022/05/04 03:13:58;;;;;;;;;;;;;;;7.15;63.28;98294.19;5015062;28;20439;-61
2022/05/04 03:16:23;;;;;;;;;;;;;;;7.16;64.13;98287.88;5014844;28;20018;-61
2022/05/04 03:18:49;;;;;;;;;;;;;;;7.17;64.21;98284.97;5014809;28;19932;-63
2022/05/04 03:21:14;;;;;;;;;;;;;;;7.12;63.04;98297.28;5014738;28;20014;-61
2022/05/04 03:23:40;;;;;;;;;;;;;;;7.11;63.46;98288.56;5014546;28;19929;-62
2022/05/04 03:26:08;;;;;;;;;;;;;;;7.06;63.47;98291.16;5014689;28;20020;-61
2022/05/04 03:28:34;;;;;;;;;;;;;;;7.00;63.66;98294.72;5014385;28;19933;-61
2022/05/04 03:30:59;;;;;;;;;;;;;;;6.98;64.00;98297.63;5013398;28;19926;-59
2022/05/04 03:33:25;;;;;;;;;;;;;;;7.25;63.53;98296.97;5013734;28;20034;-61
2022/05/04 03:35:51;;;;;;;;;;;;;;;7.40;62.45;98294.53;5034282;28;19929;-60
2022/05/04 03:38:17;;;;;;;;;;;;;;;7.90;61.78;98292.78;5034407;28;19929;-61
2022/05/04 03:40:42;;;;;;;;;;;;;;;8.37;59.72;98293.00;5034244;28;20279;-62
2022/05/04 03:43:08;;;;;;;;;;;;;;;8.83;58.22;98293.44;5033775;28;20366;-62
2022/05/04 03:45:33;;;;;;;;;;;;;;;9.14;57.18;98298.94;5016079;28;19948;-61
2022/05/04 03:47:59;;;;;;;;;;;;;;;9.19;56.56;98304.28;5034300;28;19931;-60
2022/05/04 03:50:24;;;;;;;;;;;;;;;9.64;57.07;98296.84;5033913;28;19925;-61
2022/05/04 03:52:50;;;;;;;;;;;;;;;9.78;56.23;98305.91;5032544;28;19986;-61
2022/05/04 03:55:15;;;;;;;;;;;;;;;10.01;55.61;98296.75;5033842;28;19929;-60
2022/05/04 03:57:41;;;;;;;;;;;;;;;9.95;53.18;98292.47;5033832;28;19980;-60
2022/05/04 04:00:09;;;;;;;;;;;;;;;9.90;53.29;98298.53;5033895;28;19931;-60
2022/05/04 04:02:35;;;;;;;;;;;;;;;10.21;52.37;98306.59;5032316;28;20390;-60
2022/05/04 04:05:01;;;;;;;;;;;;;;;10.59;51.48;98308.03;5033550;28;19925;-61
2022/05/04 04:07:26;;;;;;;;;;;;;;;10.65;51.53;98312.25;5033724;28;20275;-61
2022/05/04 04:09:52;;;;;;;;;;;;;;;10.98;51.21;98320.75;5033593;28;19972;-60
2022/05/04 04:12:17;;;;;;;;;;;;;;;10.91;48.77;98322.88;5033142;28;20402;-60
2022/05/04 04:14:43;;;;;;;;;;;;;;;10.84;49.34;98338.25;5033498;28;19925;-60
2022/05/04 04:17:08;;;;;;;;;;;;;;;10.97;48.56;98335.09;5033378;28;20032;-60
2022/05/04 04:19:34;;;;;;;;;;;;;;;11.02;48.71;98329.75;5033171;28;20367;-61
2022/05/04 04:21:59;;;;;;;;;;;;;;;11.36;48.22;98326.56;5032067;28;19931;-60
2022/05/04 04:24:25;;;;;;;;;;;;;;;11.70;46.17;98326.72;5033039;28;20032;-60
2022/05/04 04:26:51;;;;;;;;;;;;;;;11.64;45.93;98332.31;5033363;28;19932;-60
2022/05/04 04:29:16;;;;;;;;;;;;;;;11.83;47.21;98331.47;5033035;28;19925;-60
2022/05/04 04:31:42;;;;;;;;;;;;;;;12.00;46.35;98341.81;5032996;28;20307;-60
2022/05/04 04:34:07;;;;;;;;;;;;;;;11.65;45.79;98344.53;5025370;28;20299;-61
2022/05/04 04:36:34;;;;;;;;;;;;;;;11.12;47.22;98339.59;5013078;28;19930;-61
2022/05/04 04:38:59;;;;;;;;;;;;;;;10.89;48.85;98348.88;5012058;28;19925;-60
2022/05/04 04:41:26;;;;;;;;;;;;;;;10.77;48.87;98361.59;5013059;28;19936;-63
2022/05/04 04:43:51;;;;;;;;;;;;;;;10.60;49.42;98354.66;5013303;28;19925;-61
2022/05/04 04:46:17;;;;;;;;;;;;;;;10.59;49.63;98360.19;5013058;28;19937;-61
2022/05/04 04:48:42;;;;;;;;;;;;;;;10.43;49.68;98364.69;5012885;28;20390;-63
2022/05/04 04:51:08;;;;;;;;;;;;;;;10.38;50.62;98377.91;5011462;28;20462;-59
2022/05/04 04:53:33;;;;;;;;;;;;;;;9.98;51.03;98372.19;5012955;28;19925;-62
2022/05/04 04:55:59;;;;;;;;;;;;;;;10.00;52.88;98366.63;5012626;28;19921;-63
2022/05/04 04:58:25;;;;;;;;;;;;;;;10.39;51.13;98368.91;5011153;28;19925;-63
2022/05/04 05:00:51;;;;;;;;;;;;;;;10.46;50.08;98370.25;5010651;28;20036;-65
2022/05/04 05:03:16;;;;;;;;;;;;;;;10.39;50.01;98380.31;5012990;28;20460;-64
2022/05/04 05:05:42;;;;;;;;;;;;;;;10.27;50.69;98377.09;5011120;28;19980;-63
2022/05/04 05:08:08;;;;;;;;;;;;;;;9.85;51.54;98383.22;5012901;28;20310;-64
2022/05/04 05:10:34;;;;;;;;;;;;;;;9.58;52.59;98382.53;5011069;28;19925;-65
2022/05/04 05:13:00;;;;;;;;;;;;;;;9.33;53.06;98386.63;5011153;28;20024;-62
2022/05/04 05:18:10;;;;;;;;;;;;;;;8.80;54.31;98394.38;5012716;28;20276;-65
2022/05/04 05:20:35;;;;;;;;;;;;;;;8.69;54.78;98390.03;5011400;28;19933;-65
2022/05/04 05:23:01;;;;;;;;;;;;;;;8.78;54.79;98393.00;5012803;28;19929;-62
2022/05/04 05:25:28;;;;;;;;;;;;;;;8.63;54.93;98399.75;5011178;28;20381;-63
2022/05/04 05:27:55;;;;;;;;;;;;;;;8.61;55.41;98393.09;5012212;28;19933;-64
2022/05/04 05:30:20;;;;;;;;;;;;;;;8.53;56.06;98402.28;5012465;28;19961;-63
2022/05/04 05:32:46;;;;;;;;;;;;;;;8.32;56.78;98408.34;5011020;28;20452;-64
2022/05/04 05:35:12;;;;;;;;;;;;;;;8.12;57.27;98412.34;5027194;28;20019;-64
2022/05/04 05:37:39;;;;;;;;;;;;;;;8.09;57.20;98417.28;5032094;28;19936;-61
2022/05/04 05:40:06;;;;;;;;;;;;;;;8.27;56.45;98421.50;5014136;28;19932;-64
2022/05/04 05:42:32;;;;;;;;;;;;;;;8.19;56.76;98420.06;5063555;28;20314;-64
2022/05/04 05:44:58;;;;;;;;;;;;;;;8.51;55.78;98420.22;5029450;28;19979;-65
2022/05/04 05:47:23;;;;;;;;;;;;;;;8.50;56.65;98431.00;5029599;28;19925;-65
2022/05/04 05:49:49;;;;;;;;;;;;;;;8.48;57.21;98435.75;5030979;28;19925;-64
2022/05/04 05:52:14;;;;;;;;;;;;;;;8.63;57.23;98435.94;5030126;28;19925;-63
2022/05/04 05:54:40;;;;;;;;;;;;;;;8.55;56.02;98441.63;5030489;28;19983;-64
2022/05/04 05:57:06;;;;;;;;;;;;;;;8.60;56.54;98439.84;5028988;28;20358;-64
2022/05/04 05:59:31;;;;;;;;;;;;;;;8.66;56.22;98435.44;5030199;28;20413;-63
2022/05/04 06:01:57;;;;;;;;;;;;;;;9.05;55.49;98438.72;5030543;28;19949;-62
2022/05/04 06:04:22;;;;;;;;;;;;;;;9.40;53.97;98444.59;5026412;28;19933;-63
2022/05/04 06:06:48;;;;;;;;;;;;;;;9.25;54.84;98451.34;5020051;28;19924;-64
2022/05/04 06:09:13;;;;;;;;;;;;;;;8.91;55.84;98468.44;5027132;28;19926;-62
2022/05/04 06:11:39;;;;;;;;;;;;;;;8.37;57.08;98462.00;5019087;28;20376;-63
2022/05/04 06:14:04;;;;;;;;;;;;;;;8.27;57.24;98472.44;5026331;28;19972;-62
2022/05/04 06:16:30;;;;;;;;;;;;;;;8.26;57.75;98481.41;5014926;28;20024;-62
2022/05/04 06:18:55;;;;;;;;;;;;;;;8.05;57.28;98474.25;5015015;28;19965;-63
2022/05/04 06:21:21;;;;;;;;;;;;;;;8.03;57.86;98471.03;5013988;28;19988;-63
2022/05/04 06:23:46;;;;;;;;;;;;;;;8.15;58.14;98480.47;5012761;28;20018;-62
2022/05/04 06:26:13;;;;;;;;;;;;;;;8.13;57.55;98473.84;4997177;28;19944;-62
2022/05/04 06:28:38;;;;;;;;;;;;;;;8.09;58.18;98488.56;5013747;28;19960;-62
2022/05/04 06:34:06;;;;;;;;;;;;;;;7.82;58.57;98491.06;5014924;28;20078;-65
2022/05/04 06:36:32;;;;;;;;;;;;;;;7.61;58.51;98503.16;5033207;28;20272;-62
2022/05/04 06:38:58;;;;;;;;;;;;;;;7.47;59.63;98494.75;5033891;28;20461;-64
2022/05/04 06:41:24;;;;;;;;;;;;;;;7.44;57.62;98509.22;5032909;28;19929;-63
2022/05/04 06:43:49;;;;;;;;;;;;;;;7.11;57.49;98517.06;5033622;28;19925;-63
2022/05/04 06:46:17;;;;;;;;;;;;;;;7.22;57.49;98510.94;5033700;28;20345;-62
2022/05/04 06:48:42;;;;;;;;;;;;;;;7.27;56.78;98521.56;5034544;28;19929;-61
2022/05/04 06:51:08;;;;;;;;;;;;;;;7.35;56.08;98526.44;5034021;28;19932;-61
2022/05/04 06:53:34;;;;;;;;;;;;;;;7.48;55.82;98520.88;5034524;28;19969;-62
2022/05/04 06:56:00;;;;;;;;;;;;;;;7.85;54.68;98515.16;5033340;28;19933;-61
2022/05/04 06:58:25;;;;;;;;;;;;;;;8.04;53.87;98520.97;5033993;28;20381;-64
2022/05/04 07:00:51;;;;;;;;;;;;;;;7.73;53.84;98520.50;5034506;28;19925;-62
2022/05/04 07:03:16;;;;;;;;;;;;;;;7.77;53.86;98518.19;5034207;28;19925;-64
2022/05/04 07:05:42;;;;;;;;;;;;;;;7.44;55.14;98516.31;5033565;28;19925;-63
2022/05/04 07:08:07;;;;;;;;;;;;;;;7.33;55.53;98520.63;5034474;28;20066;-63
2022/05/04 07:10:34;;;;;;;;;;;;;;;7.46;55.82;98527.44;5033797;28;20019;-61
2022/05/04 07:12:59;;;;;;;;;;;;;;;7.45;53.29;98546.94;5033869;28;19967;-62
2022/05/04 07:15:25;;;;;;;;;;;;;;;7.53;52.71;98551.81;5032197;28;19970;-62
2022/05/04 07:17:50;;;;;;;;;;;;;;;7.86;52.41;98540.50;5032057;28;20412;-62
2022/05/04 07:20:16;;;;;;;;;;;;;;;7.99;52.62;98549.13;5033386;28;19933;-63
2022/05/04 07:22:42;;;;;;;;;;;;;;;8.08;52.32;98556.38;5033504;28;20002;-61
2022/05/04 07:25:07;;;;;;;;;;;;;;;7.98;52.43;98550.97;5032110;28;19921;-61
2022/05/04 07:27:33;;;;;;;;;;;;;;;8.05;52.14;98558.72;5033833;28;20019;-62
2022/05/04 07:29:58;;;;;;;;;;;;;;;8.22;51.80;98559.50;5032734;28;19979;-62
2022/05/04 07:32:24;;;;;;;;;;;;;;;8.19;52.01;98560.78;5033518;28;19929;-63
2022/05/04 07:34:49;;;;;;;;;;;;;;;8.08;52.28;98572.22;5033402;28;19925;-61
2022/05/04 07:37:15;;;;;;;;;;;;;;;7.83;53.27;98569.19;5032274;28;20306;-62
2022/05/04 07:42:25;;;;;;;;;;;;;;;7.64;52.67;98573.88;5033486;28;19936;-61
2022/05/04 07:44:56;;;;;;;;;;;;;;;7.53;53.28;98580.84;5033657;28;19925;-63
2022/05/04 07:47:21;;;;;;;;;;;;;;;7.64;53.83;98564.13;5033726;28;20048;-62
2022/05/04 07:49:47;;;;;;;;;;;;;;;7.57;52.52;98573.25;5033635;28;19925;-61
2022/05/04 07:52:12;;;;;;;;;;;;;;;7.49;52.50;98572.56;5033470;28;19928;-60
2022/05/04 07:54:38;;;;;;;;;;;;;;;8.02;51.85;98561.84;5033361;28;20402;-62
2022/05/04 07:57:04;;;;;;;;;;;;;;;8.72;50.44;98563.09;5033298;28;19931;-62
2022/05/04 07:59:29;;;;;;;;;;;;;;;8.72;50.63;98577.13;5032728;28;19925;-62
2022/05/04 08:04:39;;;;;;;;;;;;;;;8.41;50.04;98581.19;5032580;28;19925;-62
2022/05/04 08:07:04;;;;;;;;;;;;;;;8.39;50.13;98593.84;5031107;28;19936;-63
2022/05/04 08:09:34;;;;;;;;;;;;;;;8.17;49.69;98607.72;5031164;28;20059;-62
2022/05/04 08:12:00;;;;;;;;;;;;;;;8.33;49.91;98600.06;5033248;28;19935;-64
2022/05/04 08:14:25;;;;;;;;;;;;;;;8.16;49.42;98594.78;5032539;28;19925;-63
2022/05/04 08:16:51;;;;;;;;;;;;;;;8.23;49.23;98610.47;5033075;28;20298;-63
2022/05/04 08:19:16;;;;;;;;;;;;;;;7.48;52.44;98628.22;5032304;28;19979;-63
2022/05/04 08:21:42;;;;;;;;;;;;;;;6.70;56.65;98646.13;5030694;28;19941;-63
2022/05/04 08:24:08;;;;;;;;;;;;;;;6.11;60.53;98663.72;5032111;28;19925;-62
2022/05/04 08:26:33;;;;;;;;;;;;;;;5.86;60.99;98648.88;5031367;28;19929;-64
2022/05/04 08:28:58;;;;;;;;;;;;;;;5.74;58.71;98657.75;5033094;28;20016;-62
2022/05/04 08:31:24;;;;;;;;;;;;;;;5.74;56.08;98655.94;5032867;28;20452;-65
2022/05/04 08:33:50;;;;;;;;;;;;;;;5.87;53.14;98632.06;5032729;28;19932;-64
2022/05/04 08:36:15;;;;;;;;;;;;;;;6.17;53.44;98633.06;5029281;28;19933;-62
2022/05/04 08:38:41;;;;;;;;;;;;;;;6.45;52.44;98635.84;5016044;28;19932;-63
2022/05/04 08:41:07;;;;;;;;;;;;;;;6.87;54.74;98640.16;5015760;28;20295;-62
2022/05/04 08:43:32;;;;;;;;;;;;;;;7.23;51.92;98645.13;5032853;28;19982;-63
2022/05/04 08:46:00;;;;;;;;;;;;;;;7.55;48.80;98631.50;5032440;28;20337;-64
2022/05/04 08:48:26;;;;;;;;;;;;;;;7.88;49.23;98633.41;5032985;28;20011;-63
2022/05/04 08:50:51;;;;;;;;;;;;;;;8.28;48.56;98636.94;5031289;28;20012;-64
2022/05/04 08:53:17;;;;;;;;;;;;;;;8.55;48.51;98634.47;5029331;28;19960;-63
2022/05/04 08:55:42;;;;;;;;;;;;;;;8.73;47.39;98641.31;5012212;28;19930;-67
2022/05/04 08:58:08;;;;;;;;;;;;;;;8.80;47.34;98631.41;5010880;28;19976;-65
2022/05/04 09:00:33;;;;;;;;;;;;;;;8.89;47.74;98629.13;5012560;28;19931;-63
2022/05/04 09:02:59;;;;;;;;;;;;;;;8.79;47.44;98640.34;5011598;28;19956;-63
2022/05/04 09:05:25;;;;;;;;;;;;;;;8.56;47.79;98634.25;5011308;28;19933;-66
2022/05/04 09:07:52;;;;;;;;;;;;;;;8.64;48.49;98635.66;5012948;28;19933;-64
2022/05/04 09:10:18;;;;;;;;;;;;;;;8.77;48.36;98639.81;5012539;28;19925;-65
2022/05/04 09:12:46;;;;;;;;;;;;;;;8.74;47.87;98641.09;5012661;28;19936;-63
2022/05/04 09:15:18;;;;;;;;;;;;;;;8.93;46.54;98630.22;5012594;28;19948;-63
2022/05/04 09:17:44;;;;;;;;;;;;;;;8.88;46.87;98633.59;5012680;28;19937;-63
2022/05/04 09:22:53;;;;;;;;;;;;;;;9.15;45.52;98633.69;5012620;28;19933;-61
2022/05/04 09:25:19;;;;;;;;;;;;;;;9.10;44.58;98631.78;5012017;28;19931;-62
2022/05/04 09:27:45;;;;;;;;;;;;;;;9.28;44.33;98637.81;5010473;28;20024;-63
2022/05/04 09:30:11;;;;;;;;;;;;;;;9.41;40.84;98640.09;5021373;28;19971;-62
2022/05/04 09:32:38;;;;;;;;;;;;;;;9.33;41.06;98640.50;5015311;28;20358;-62
2022/05/04 09:35:04;;;;;;;;;;;;;;;9.37;42.50;98633.66;5019510;28;19925;-60
2022/05/04 09:45:56;;;;;;;;;;;;;;;9.64;36.73;98636.34;5011749;28;19929;-59
2022/05/04 09:48:32;;;;;;;;;;;;;;;9.37;36.69;98656.69;5011809;28;19936;-61
2022/05/04 09:51:05;;;;;;;;;;;;;;;9.16;39.67;98668.88;5011766;28;20456;-62
2022/05/04 09:53:31;;;;;;;;;;;;;;;8.37;42.81;98661.91;5020156;28;20313;-61
2022/05/04 09:55:57;;;;;;;;;;;;;;;8.15;44.18;98689.03;5031890;28;19932;-60
2022/05/04 09:58:24;;;;;;;;;;;;;;;7.76;44.84;98695.16;5031190;28;19929;-60
2022/05/04 10:00:51;;;;;;;;;;;;;;;7.59;45.72;98700.38;5031096;28;19925;-60
2022/05/04 10:03:18;;;;;;;;;;;;;;;7.22;45.12;98727.88;5031402;28;20374;-62
2022/05/04 10:05:45;;;;;;;;;;;;;;;7.11;45.69;98722.63;5031210;28;19967;-61
2022/05/04 10:08:11;;;;;;;;;;;;;;;7.02;46.66;98712.41;5013409;28;20032;-60
2022/05/04 10:10:36;;;;;;;;;;;;;;;7.11;46.88;98712.06;5031256;28;20023;-60
2022/05/04 10:13:02;;;;;;;;;;;;;;;7.28;46.69;98713.78;4996983;28;19929;-60
2022/05/04 10:15:27;;;;;;;;;;;;;;;7.43;45.15;98710.63;5031111;28;19979;-59
2022/05/04 10:18:04;;;;;;;;;;;;;;;7.54;44.98;98716.94;5029595;28;19933;-58
2022/05/04 10:20:53;;;;;;;;;;;;;;;7.64;44.42;98721.59;5017968;28;19925;-59
2022/05/04 10:23:18;;;;;;;;;;;;;;;7.74;43.64;98708.63;5022943;28;19936;-58
2022/05/04 10:25:44;;;;;;;;;;;;;;;7.77;43.01;98705.50;5010932;28;20008;-57
2022/05/04 10:28:14;;;;;;;;;;;;;;;8.00;42.97;98706.41;5010082;28;20023;-59
2022/05/04 10:30:56;;;;;;;;;;;;;;;8.16;42.18;98705.66;5023676;28;20393;-60
2022/05/04 10:33:23;;;;;;;;;;;;;;;8.41;41.90;98716.69;5029781;28;19976;-58
2022/05/04 10:35:49;;;;;;;;;;;;;;;8.57;41.97;98714.28;5030213;28;20361;-56
2022/05/04 10:38:18;;;;;;;;;;;;;;;8.71;41.51;98723.50;5029204;28;20035;-60
2022/05/04 10:40:50;;;;;;;;;;;;;;;8.83;41.12;98726.03;5028446;28;19925;-61
2022/05/04 10:43:36;;;;;;;;;;;;;;;9.08;40.57;98726.38;5030290;28;20027;-59
2022/05/04 10:46:11;;;;;;;;;;;;;;;9.37;40.06;98722.81;5022544;28;19925;-60
2022/05/04 10:48:43;;;;;;;;;;;;;;;9.49;40.61;98708.41;5030233;28;19929;-59
2022/05/04 10:51:12;;;;;;;;;;;;;;;9.58;39.99;98711.41;5030140;28;19925;-60
2022/05/04 10:53:40;;;;;;;;;;;;;;;9.70;39.57;98712.06;5028305;28;19925;-57
2022/05/04 10:56:07;;;;;;;;;;;;;;;9.75;39.19;98714.78;5029952;28;19925;-59
2022/05/04 10:58:34;;;;;;;;;;;;;;;9.66;38.17;98716.28;5030503;28;20325;-63
2022/05/04 11:01:06;;;;;;;;;;;;;;;9.26;39.23;98721.88;5032502;28;19925;-59
2022/05/04 11:03:33;;;;;;;;;;;;;;;9.28;39.29;98725.06;5033343;28;19971;-59
2022/05/04 11:06:01;;;;;;;;;;;;;;;9.08;38.01;98728.25;5025104;28;19932;-58
2022/05/04 11:08:27;;;;;;;;;;;;;;;9.05;37.44;98732.16;5030102;28;19952;-58
2022/05/04 11:10:52;;;;;;;;;;;;;;;9.02;35.77;98719.44;5030857;28;19955;-57
2022/05/04 11:13:18;;;;;;;;;;;;;;;9.07;36.27;98716.88;5015215;28;19952;-58
2022/05/04 11:15:52;;;;;;;;;;;;;;;9.32;35.59;98712.94;5033787;28;19969;-57
2022/05/04 11:18:20;;;;;;;;;;;;;;;9.28;35.01;98733.00;5033945;28;19936;-59
2022/05/04 11:20:46;;;;;;;;;;;;;;;9.06;34.55;98719.78;5013109;28;20414;-59
2022/05/04 11:23:12;;;;;;;;;;;;;;;8.92;35.61;98723.78;5012193;28;20445;-59
2022/05/04 11:25:37;;;;;;;;;;;;;;;8.96;34.87;98719.63;5013569;28;19925;-59
2022/05/04 11:28:03;;;;;;;;;;;;;;;8.90;35.20;98728.50;5012396;28;20401;-60
2022/05/04 11:30:28;;;;;;;;;;;;;;;9.09;35.35;98720.06;5027958;28;19925;-60
2022/05/04 11:32:54;;;;;;;;;;;;;;;9.14;34.78;98727.25;5034134;28;19968;-58
2022/05/04 11:35:19;;;;;;;;;;;;;;;8.80;36.47;98727.31;5032356;28;19925;-59
2022/05/04 11:37:45;;;;;;;;;;;;;;;8.49;36.68;98728.69;5031580;28;19929;-60
2022/05/04 11:40:12;;;;;;;;;;;;;;;8.55;36.22;98719.00;5033885;28;19925;-60
2022/05/04 11:42:38;;;;;;;;;;;;;;;8.43;36.26;98736.75;5033724;28;20417;-59
2022/05/04 11:45:03;;;;;;;;;;;;;;;8.49;36.02;98730.53;5033383;28;19957;-61
2022/05/04 11:47:29;;;;;;;;;;;;;;;8.60;37.76;98724.38;5032388;28;20052;-59
2022/05/04 11:49:55;;;;;;;;;;;;;;;8.78;37.24;98729.41;5032132;28;19924;-59
2022/05/04 11:52:20;;;;;;;;;;;;;;;8.83;35.73;98715.47;5032097;28;20024;-62
2022/05/04 11:54:46;;;;;;;;;;;;;;;8.96;35.04;98736.25;5030043;28;19940;-62
2022/05/04 11:57:12;;;;;;;;;;;;;;;9.02;34.33;98727.38;5031827;28;19932;-62
2022/05/04 11:59:37;;;;;;;;;;;;;;;9.03;35.00;98720.22;5030308;28;20342;-62
2022/05/04 12:02:03;;;;;;;;;;;;;;;9.26;34.76;98727.94;5032095;28;19963;-61
2022/05/04 12:04:28;;;;;;;;;;;;;;;9.43;35.28;98706.75;5030558;28;20115;-58
2022/05/04 12:06:55;;;;;;;;;;;;;;;9.48;33.43;98725.34;5013784;28;19925;-62
2022/05/04 12:09:20;;;;;;;;;;;;;;;9.55;34.49;98722.50;5011942;28;19926;-61
2022/05/04 12:11:46;;;;;;;;;;;;;;;9.51;34.38;98718.75;5025561;28;19956;-59
2022/05/04 12:14:12;;;;;;;;;;;;;;;9.36;34.13;98721.22;5011998;28;19979;-60
2022/05/04 12:16:38;;;;;;;;;;;;;;;9.49;34.95;98721.63;5022588;28;20370;-60
2022/05/04 12:19:04;;;;;;;;;;;;;;;9.64;34.13;98730.81;5013289;28;19933;-61
2022/05/04 12:21:29;;;;;;;;;;;;;;;9.19;39.82;98784.72;5013524;28;20298;-60
2022/05/04 12:23:55;;;;;;;;;;;;;;;8.74;41.78;98778.50;5027621;28;20026;-60
2022/05/04 12:26:20;;;;;;;;;;;;;;;8.57;40.82;98789.03;5032658;28;19929;-59
2022/05/04 12:33:08;;;;;;;;;;;;;;;8.45;40.58;98776.97;5028617;28;20008;-63
2022/05/04 12:34:16;;;;;;;;;;;;;;;8.02;39.94;98778.25;5032012;28;19933;-62
2022/05/04 12:36:45;;;;;;;;;;;;;;;7.84;40.86;98784.50;5030646;28;19936;-62
2022/05/04 12:39:11;;;;;;;;;;;;;;;7.86;42.08;98779.81;5030617;28;19934;-62
2022/05/04 12:41:36;;;;;;;;;;;;;;;7.67;42.74;98816.88;5031128;28;19935;-61
2022/05/04 12:44:03;;;;;;;;;;;;;;;7.40;43.37;98816.56;5029718;28;20563;-63
2022/05/04 12:46:29;;;;;;;;;;;;;;;7.40;42.85;98821.06;5031533;28;20333;-64
2022/05/04 12:48:55;;;;;;;;;;;;;;;7.43;42.38;98818.75;5031735;28;19936;-62
2022/05/04 12:51:22;;;;;;;;;;;;;;;7.38;42.14;98815.19;5014049;28;19929;-63
2022/05/04 12:53:48;;;;;;;;;;;;;;;7.61;41.62;98803.84;5028683;28;19932;-63
2022/05/04 12:59:01;;;;;;;;;;;;;;;7.97;39.13;98794.78;5030183;28;19933;-64
2022/05/04 13:01:27;;;;;;;;;;;;;;;8.01;38.29;98792.50;5030517;28;20314;-64
2022/05/04 13:03:52;;;;;;;;;;;;;;;7.83;38.79;98802.19;5013371;28;19929;-64
2022/05/04 13:06:18;;;;;;;;;;;;;;;7.74;39.60;98799.09;5028050;28;19936;-63
2022/05/04 13:08:44;;;;;;;;;;;;;;;7.71;39.21;98811.97;5030543;28;19928;-64
2022/05/04 13:11:10;;;;;;;;;;;;;;;7.78;40.03;98804.72;5030926;28;19925;-61
2022/05/04 13:13:35;;;;;;;;;;;;;;;7.79;39.96;98803.66;5021545;28;19929;-66
2022/05/04 13:16:01;;;;;;;;;;;;;;;8.06;40.03;98803.97;5017674;28;19978;-64
2022/05/04 13:18:26;;;;;;;;;;;;;;;8.25;39.55;98804.56;5030674;28;19986;-63
2022/05/04 13:20:52;;;;;;;;;;;;;;;8.50;39.59;98801.63;5029916;28;19925;-65
2022/05/04 13:23:19;;;;;;;;;;;;;;;8.75;39.18;98801.22;5028808;28;19987;-63
2022/05/04 13:25:44;;;;;;;;;;;;;;;8.86;38.34;98815.41;5031447;28;19925;-65